Terminal Aerodrome Forecast
Issued by NWS Omaha/Valley, NE

Home | Current Version | Previous Version | Graphics & Text | Print | Product List | Glossary On
Versions: 1 2 3 4 5 6 7 8 9 10 11 12 13 14 15 16 17 18
000
FTUS43 KOAX 211740
TAFOFK
TAF
KOFK 211740Z 2118/2218 14005KT P6SM SCT250
     FM220500 13004KT P6SM OVC100
     FM220700 16006KT P6SM VCSH OVC050 PROB30 2209/2212 2SM -SN
      OVC015
     FM221200 11007KT 2SM -SN BR OVC007=

USA.gov is the U.S. government's official web portal to all federal, state and local government web resources and services.